createdAt,value
2023-09-06T00:00:16.636Z,76.700000
2023-09-06T00:05:18.568Z,76.500000
2023-09-06T00:10:24.762Z,76.400000
2023-09-06T00:15:24.858Z,76.300000
2023-09-06T00:20:18.539Z,76.100000
2023-09-06T00:25:18.532Z,75.900000
2023-09-06T00:30:24.952Z,75.800000
2023-09-06T00:35:18.518Z,75.700000
2023-09-06T00:40:18.468Z,75.600000
2023-09-06T00:45:18.559Z,75.400000
2023-09-06T00:50:16.630Z,75.400000
2023-09-06T00:55:16.749Z,75.300000
2023-09-06T01:00:24.888Z,75.200000
2023-09-06T01:05:18.723Z,75.100000
2023-09-06T01:10:24.876Z,75.100000
2023-09-06T01:15:18.768Z,75.000000
2023-09-06T01:20:24.889Z,74.900000
2023-09-06T01:25:24.905Z,74.900000
2023-09-06T01:30:24.898Z,74.800000
2023-09-06T01:35:18.696Z,74.700000
2023-09-06T01:40:24.909Z,74.700000
2023-09-06T01:45:16.733Z,74.600000
2023-09-06T01:50:24.916Z,74.500000
2023-09-06T01:55:25.057Z,74.400000
2023-09-06T02:00:25.043Z,74.300000
2023-09-06T02:05:18.770Z,74.300000
2023-09-06T02:10:25.015Z,74.200000
2023-09-06T02:15:18.712Z,74.100000
2023-09-06T02:20:24.990Z,74.100000
2023-09-06T02:25:25.075Z,74.000000
2023-09-06T02:30:18.750Z,74.100000
2023-09-06T02:35:16.742Z,74.000000
2023-09-06T02:40:17.007Z,74.000000
2023-09-06T02:45:25.023Z,73.900000
2023-09-06T02:50:18.750Z,73.800000
2023-09-06T02:55:18.727Z,73.800000
2023-09-06T03:00:18.779Z,73.700000
2023-09-06T03:05:18.909Z,73.800000
2023-09-06T03:10:25.036Z,73.700000
2023-09-06T03:15:25.001Z,73.800000
2023-09-06T03:20:24.914Z,73.800000
2023-09-06T03:25:25.075Z,73.800000
2023-09-06T03:30:16.922Z,73.800000
2023-09-06T03:35:16.818Z,73.800000
2023-09-06T03:40:25.093Z,73.800000
2023-09-06T03:45:18.831Z,73.800000
2023-09-06T03:50:18.961Z,73.900000
2023-09-06T03:55:18.863Z,73.800000
2023-09-06T04:00:18.081Z,73.800000
2023-09-06T04:05:24.463Z,73.700000
2023-09-06T04:10:24.294Z,73.700000
2023-09-06T04:15:18.098Z,73.600000
2023-09-06T04:20:18.096Z,73.500000
2023-09-06T04:25:24.287Z,73.500000
2023-09-06T04:30:18.117Z,73.500000
2023-09-06T04:35:16.184Z,73.500000
2023-09-06T04:40:16.272Z,73.400000
2023-09-06T04:45:24.314Z,73.400000
2023-09-06T04:50:18.182Z,73.400000
2023-09-06T04:55:18.228Z,73.400000
2023-09-06T05:00:24.377Z,73.500000
2023-09-06T05:05:24.365Z,73.900000
2023-09-06T05:10:24.372Z,74.100000
2023-09-06T05:15:18.044Z,74.400000
2023-09-06T05:20:24.467Z,74.500000
2023-09-06T05:25:24.360Z,74.500000
2023-09-06T05:30:16.247Z,74.500000
2023-09-06T05:35:16.214Z,74.500000
2023-09-06T05:40:24.723Z,74.500000
2023-09-06T05:45:24.442Z,74.400000
2023-09-06T05:50:24.487Z,74.300000
2023-09-06T05:55:24.558Z,74.200000
2023-09-06T06:00:24.467Z,74.200000
2023-09-06T06:05:18.210Z,74.200000
2023-09-06T06:10:24.351Z,74.000000
2023-09-06T06:15:24.436Z,74.000000
2023-09-06T06:20:34.493Z,73.900000
2023-09-06T06:25:16.256Z,73.800000
2023-09-06T06:30:18.247Z,73.900000
2023-09-06T06:35:24.534Z,74.000000
2023-09-06T06:40:18.256Z,74.300000
2023-09-06T06:45:18.643Z,74.400000
2023-09-06T06:50:18.472Z,74.500000
2023-09-06T06:55:24.657Z,74.500000
2023-09-06T07:00:24.581Z,74.600000
2023-09-06T07:05:18.311Z,74.700000
2023-09-06T07:10:24.396Z,74.700000
2023-09-06T07:15:16.403Z,74.700000
2023-09-06T07:20:16.423Z,74.700000
2023-09-06T07:25:18.369Z,74.700000
2023-09-06T07:30:18.377Z,74.700000
2023-09-06T07:35:24.663Z,74.700000
2023-09-06T07:40:18.448Z,74.600000
2023-09-06T07:45:24.566Z,74.600000
2023-09-06T07:50:18.393Z,74.600000
2023-09-06T07:55:24.539Z,74.500000
2023-09-06T08:00:24.768Z,74.500000
2023-09-06T08:05:18.392Z,74.300000
2023-09-06T08:10:16.325Z,74.200000
2023-09-06T08:15:18.409Z,74.100000
2023-09-06T08:20:18.372Z,74.100000
2023-09-06T08:25:18.404Z,74.000000
2023-09-06T08:30:24.707Z,73.900000
2023-09-06T08:35:24.649Z,73.900000
2023-09-06T08:40:18.388Z,73.900000
2023-09-06T08:45:18.429Z,73.700000
2023-09-06T08:50:24.768Z,73.700000
2023-09-06T08:55:18.362Z,73.700000
2023-09-06T09:00:16.601Z,73.600000
2023-09-06T09:05:21.230Z,73.500000
2023-09-06T09:10:24.728Z,73.400000
2023-09-06T09:15:24.692Z,73.400000
2023-09-06T09:20:24.698Z,73.300000
2023-09-06T09:25:18.458Z,73.200000
2023-09-06T09:30:18.545Z,73.100000
2023-09-06T09:35:18.515Z,73.100000
2023-09-06T09:40:18.463Z,73.000000
2023-09-06T09:45:24.872Z,73.000000
2023-09-06T09:50:18.597Z,73.000000
2023-09-06T09:55:16.650Z,73.000000
2023-09-06T10:00:16.719Z,72.900000
2023-09-06T10:05:24.960Z,72.700000
2023-09-06T10:10:24.799Z,72.700000
2023-09-06T10:15:18.598Z,72.600000
2023-09-06T10:20:18.622Z,72.600000
2023-09-06T10:25:24.831Z,72.400000
2023-09-06T10:30:18.694Z,72.200000
2023-09-06T10:35:18.534Z,72.300000
2023-09-06T10:40:24.855Z,72.400000
2023-09-06T10:45:24.767Z,72.400000
2023-09-06T10:50:16.645Z,72.200000
2023-09-06T10:55:24.979Z,72.200000
2023-09-06T11:00:18.647Z,72.300000
2023-09-06T11:05:24.898Z,72.300000
2023-09-06T11:10:18.708Z,72.300000
2023-09-06T11:15:18.663Z,72.200000
2023-09-06T11:20:25.079Z,72.500000
2023-09-06T11:25:18.707Z,72.700000
2023-09-06T11:30:18.697Z,72.800000
2023-09-06T11:35:18.765Z,73.000000
2023-09-06T11:40:16.801Z,73.400000
2023-09-06T11:45:16.696Z,74.300000
2023-09-06T11:50:24.876Z,74.800000
2023-09-06T11:55:18.661Z,74.900000
2023-09-06T12:00:25.074Z,75.000000
2023-09-06T12:05:32.147Z,75.200000
2023-09-06T12:10:25.010Z,75.400000
2023-09-06T12:15:18.701Z,75.600000
2023-09-06T12:20:18.688Z,75.800000
2023-09-06T12:25:25.079Z,76.000000
2023-09-06T12:30:18.773Z,76.200000
2023-09-06T12:35:16.994Z,76.400000
2023-09-06T12:40:25.021Z,76.500000
2023-09-06T12:45:25.103Z,76.600000
2023-09-06T12:50:18.884Z,76.800000
2023-09-06T12:55:25.041Z,76.900000
2023-09-06T13:00:24.963Z,77.200000
2023-09-06T13:05:18.887Z,77.500000
2023-09-06T13:10:18.801Z,77.700000
2023-09-06T13:15:18.740Z,77.900000
2023-09-06T13:20:25.020Z,78.100000
2023-09-06T13:25:16.876Z,78.400000
2023-09-06T13:30:16.818Z,78.800000
2023-09-06T13:35:25.092Z,78.900000
2023-09-06T13:40:25.017Z,79.500000
2023-09-06T13:45:18.917Z,80.500000
2023-09-06T13:50:25.119Z,80.800000
2023-09-06T13:55:25.073Z,81.000000
2023-09-06T14:00:25.028Z,81.100000
2023-09-06T14:05:25.109Z,81.700000
2023-09-06T14:10:18.956Z,82.300000
2023-09-06T14:15:25.084Z,82.300000
2023-09-06T14:20:16.979Z,82.500000
2023-09-06T14:25:16.909Z,82.400000
2023-09-06T14:30:18.981Z,82.300000
2023-09-06T14:35:25.145Z,83.500000
2023-09-06T14:40:25.160Z,84.400000
2023-09-06T14:45:27.493Z,84.600000
2023-09-06T14:50:18.918Z,84.400000
2023-09-06T14:55:25.263Z,84.700000
2023-09-06T15:00:25.143Z,84.400000
2023-09-06T15:05:18.923Z,85.000000
2023-09-06T15:10:18.907Z,85.100000
2023-09-06T15:15:17.124Z,84.700000
2023-09-06T15:20:25.071Z,83.100000
2023-09-06T15:25:26.987Z,82.800000
2023-09-06T15:30:19.066Z,82.900000
2023-09-06T15:35:25.250Z,83.200000
2023-09-06T15:40:25.174Z,84.000000
2023-09-06T15:45:18.959Z,83.500000
2023-09-06T15:50:25.676Z,83.400000
2023-09-06T15:55:25.239Z,83.400000
2023-09-06T16:00:32.441Z,83.800000
2023-09-06T16:05:17.119Z,85.300000
2023-09-06T16:10:17.027Z,84.900000
2023-09-06T16:15:19.510Z,84.500000
2023-09-06T16:20:25.247Z,84.800000
2023-09-06T16:25:19.008Z,86.200000
2023-09-06T16:30:25.369Z,87.200000
2023-09-06T16:35:25.185Z,87.700000
2023-09-06T16:40:25.308Z,88.200000
2023-09-06T16:45:25.387Z,87.700000
2023-09-06T16:50:25.353Z,86.200000
2023-09-06T16:55:19.132Z,85.900000
2023-09-06T17:00:17.101Z,87.000000
2023-09-06T17:05:17.061Z,87.500000
2023-09-06T17:10:25.464Z,86.500000
2023-09-06T17:15:25.427Z,85.900000
2023-09-06T17:20:25.350Z,85.900000
2023-09-06T17:25:25.280Z,85.700000
2023-09-06T17:30:25.370Z,85.700000
2023-09-06T17:35:19.243Z,85.900000
2023-09-06T17:40:25.658Z,86.100000
2023-09-06T17:45:25.387Z,86.100000
2023-09-06T17:50:25.409Z,86.000000
2023-09-06T17:55:17.215Z,85.900000
2023-09-06T18:00:19.178Z,86.000000
2023-09-06T18:05:19.414Z,86.300000
2023-09-06T18:10:25.437Z,86.200000
2023-09-06T18:15:25.413Z,86.300000
2023-09-06T18:20:25.452Z,86.300000
2023-09-06T18:25:19.444Z,86.600000
2023-09-06T18:30:19.217Z,87.100000
2023-09-06T18:35:25.436Z,87.400000
2023-09-06T18:40:25.503Z,87.300000
2023-09-06T18:45:17.216Z,87.200000
2023-09-06T18:50:17.609Z,87.600000
2023-09-06T18:55:25.533Z,87.600000
2023-09-06T19:00:25.453Z,87.500000
2023-09-06T19:05:19.205Z,87.500000
2023-09-06T19:10:19.763Z,87.600000
2023-09-06T19:15:25.457Z,87.500000
2023-09-06T19:20:25.443Z,87.600000
2023-09-06T19:25:19.260Z,87.500000
2023-09-06T19:30:19.314Z,87.600000
2023-09-06T19:35:19.291Z,87.700000
2023-09-06T19:40:17.550Z,87.800000
2023-09-06T19:45:17.402Z,87.600000
2023-09-06T19:50:19.377Z,87.800000
2023-09-06T19:55:25.569Z,87.800000
2023-09-06T20:00:25.642Z,87.800000
2023-09-06T20:05:25.889Z,87.700000
2023-09-06T20:10:25.551Z,87.600000
2023-09-06T20:15:25.565Z,87.800000
2023-09-06T20:20:19.420Z,87.700000
2023-09-06T20:25:25.637Z,87.800000
2023-09-06T20:30:19.324Z,87.900000
2023-09-06T20:35:17.630Z,87.700000
2023-09-06T20:40:25.639Z,87.600000
2023-09-06T20:45:25.616Z,87.600000
2023-09-06T20:50:25.649Z,87.600000
2023-09-06T20:55:19.415Z,87.600000
2023-09-06T21:00:19.434Z,87.500000
2023-09-06T21:05:19.465Z,87.300000
2023-09-06T21:10:25.611Z,87.400000
2023-09-06T21:15:19.424Z,87.300000
2023-09-06T21:20:19.535Z,87.300000
2023-09-06T21:25:17.542Z,87.200000
2023-09-06T21:30:17.474Z,87.100000
2023-09-06T21:35:19.487Z,87.100000
2023-09-06T21:40:19.564Z,87.000000
2023-09-06T21:45:19.511Z,87.000000
2023-09-06T21:50:25.796Z,87.300000
2023-09-06T21:55:25.681Z,87.200000
2023-09-06T22:00:17.523Z,86.900000
2023-09-06T22:05:15.638Z,86.400000
2023-09-06T22:10:19.636Z,85.800000
2023-09-06T22:15:23.837Z,85.400000
2023-09-06T22:20:17.520Z,85.000000
2023-09-06T22:25:24.012Z,84.700000
2023-09-06T22:30:18.584Z,84.500000
2023-09-06T22:35:18.536Z,84.300000
2023-09-06T22:40:16.663Z,84.100000
2023-09-06T22:45:18.558Z,83.800000
2023-09-06T22:50:18.589Z,83.500000
2023-09-06T22:55:18.601Z,83.200000
2023-09-06T23:00:18.626Z,82.900000
2023-09-06T23:05:18.627Z,82.600000
2023-09-06T23:10:18.624Z,82.300000
2023-09-06T23:15:24.742Z,81.600000
2023-09-06T23:20:24.851Z,80.900000
2023-09-06T23:25:24.806Z,80.200000
2023-09-06T23:30:16.721Z,79.800000
2023-09-06T23:35:16.757Z,79.600000
2023-09-06T23:40:24.906Z,79.100000
2023-09-06T23:45:18.659Z,78.900000
2023-09-06T23:50:25.014Z,78.700000
2023-09-06T23:55:24.944Z,78.400000
